createdAt,value
2018-11-06T00:01:11.785Z,"    0"
2018-11-06T00:06:07.352Z,"    0"
2018-11-06T00:11:03.182Z,"    0"
2018-11-06T00:15:59.752Z,"    0"
2018-11-06T00:20:55.142Z,"    0"
2018-11-06T00:25:51.031Z,"    0"
2018-11-06T00:30:46.721Z,"    0"
2018-11-06T00:35:42.463Z,"    0"
2018-11-06T00:40:38.144Z,"    0"
2018-11-06T00:45:34.833Z,"    0"
2018-11-06T00:50:31.361Z,"    0"
2018-11-06T00:55:27.726Z,"    0"
2018-11-06T01:00:23.342Z,"    0"
2018-11-06T01:05:19.171Z,"    0"
2018-11-06T01:10:15.169Z,"    0"
2018-11-06T01:15:11.032Z,"    0"
2018-11-06T01:20:06.788Z,"    0"
2018-11-06T01:25:02.757Z,"    0"
2018-11-06T01:29:58.482Z,"    0"
2018-11-06T01:34:54.237Z,"    0"
2018-11-06T01:39:50.908Z,"    0"
2018-11-06T01:44:46.479Z,"    0"
2018-11-06T01:49:42.316Z,"    0"
2018-11-06T01:54:38.075Z,"    0"
2018-11-06T01:59:33.813Z,"    0"
2018-11-06T02:04:29.778Z,"    0"
2018-11-06T02:09:25.460Z,"    0"
2018-11-06T02:14:20.965Z,"    0"
2018-11-06T02:19:18.243Z,"    0"
2018-11-06T02:24:13.339Z,"    0"
2018-11-06T02:29:10.124Z,"    0"
2018-11-06T02:34:05.673Z,"    0"
2018-11-06T02:39:01.253Z,"    0"
2018-11-06T02:43:56.986Z,"    0"
2018-11-06T02:48:52.934Z,"    0"
2018-11-06T02:53:49.485Z,"    0"
2018-11-06T02:58:45.260Z,"    0"
2018-11-06T03:03:41.868Z,"    0"
2018-11-06T03:08:36.783Z,"    0"
2018-11-06T03:13:33.068Z,"    0"
2018-11-06T03:18:29.530Z,"    0"
2018-11-06T03:23:24.881Z,"    0"
2018-11-06T03:28:20.581Z,"    0"
2018-11-06T03:33:16.297Z,"    0"
2018-11-06T03:38:12.107Z,"    0"
2018-11-06T03:43:07.929Z,"    0"
2018-11-06T03:48:03.692Z,"    0"
2018-11-06T03:53:00.089Z,"    0"
2018-11-06T03:57:55.659Z,"    0"
2018-11-06T04:02:52.370Z,"    0"
2018-11-06T04:07:47.859Z,"    0"
2018-11-06T04:12:43.665Z,"    0"
2018-11-06T04:17:39.300Z,"    0"
2018-11-06T04:22:36.017Z,"    0"
2018-11-06T04:27:31.115Z,"    0"
2018-11-06T04:32:26.994Z,"    0"
2018-11-06T04:37:22.625Z,"    0"
2018-11-06T04:42:18.202Z,"    0"
2018-11-06T04:47:14.191Z,"    0"
2018-11-06T04:52:10.871Z,"    0"
2018-11-06T04:57:06.296Z,"    0"
2018-11-06T05:02:03.123Z,"    0"
2018-11-06T05:06:58.197Z,"    0"
2018-11-06T05:11:55.099Z,"    0"
2018-11-06T05:16:50.381Z,"    0"
2018-11-06T05:21:45.875Z,"    0"
2018-11-06T05:26:41.646Z,"    0"
2018-11-06T05:31:37.767Z,"    0"
2018-11-06T05:36:33.506Z,"    0"
2018-11-06T05:41:29.332Z,"    0"
2018-11-06T05:46:25.145Z,"    0"
2018-11-06T05:51:20.880Z,"    0"
2018-11-06T05:56:17.504Z,"    0"
2018-11-06T06:01:12.838Z,"    4"
2018-11-06T06:06:08.752Z,"    8"
2018-11-06T06:11:04.657Z,"   12"
2018-11-06T06:16:00.202Z,"   24"
2018-11-06T06:20:57.237Z,"   48"
2018-11-06T06:25:52.522Z,"   88"
2018-11-06T06:30:49.313Z,"  148"
2018-11-06T06:35:45.731Z,"  184"
2018-11-06T06:40:42.617Z,"  240"
2018-11-06T06:45:38.826Z,"  304"
2018-11-06T06:50:34.630Z,"  380"
2018-11-06T06:55:30.586Z,"  492"
2018-11-06T07:00:26.136Z,"  612"
2018-11-06T07:05:23.173Z,"  756"
2018-11-06T07:10:18.240Z,"  900"
2018-11-06T07:15:13.961Z," 1052"
2018-11-06T07:20:10.008Z," 1148"
2018-11-06T07:25:05.760Z," 1268"
2018-11-06T07:30:03.274Z," 1404"
2018-11-06T07:34:59.036Z," 1584"
2018-11-06T07:39:55.768Z," 1720"
2018-11-06T07:44:51.278Z," 1892"
2018-11-06T07:49:47.096Z," 2152"
2018-11-06T07:54:44.030Z," 2380"
2018-11-06T07:59:40.356Z," 2580"
2018-11-06T08:04:36.012Z," 2796"
2018-11-06T08:09:31.698Z," 3004"
2018-11-06T08:14:27.992Z," 3232"
2018-11-06T08:19:25.697Z," 3504"
2018-11-06T08:24:21.125Z," 3628"
2018-11-06T08:29:16.936Z," 3900"
2018-11-06T08:34:12.724Z," 4108"
2018-11-06T08:39:08.692Z," 4284"
2018-11-06T08:44:05.345Z," 4532"
2018-11-06T08:49:01.145Z," 4600"
2018-11-06T08:53:57.691Z," 4636"
2018-11-06T08:58:53.500Z," 4904"
2018-11-06T09:03:49.478Z," 5116"
2018-11-06T09:08:45.330Z," 5412"
2018-11-06T09:13:41.751Z," 5184"
2018-11-06T09:18:38.377Z," 5232"
2018-11-06T09:23:34.548Z," 5148"
2018-11-06T09:28:30.659Z," 4160"
2018-11-06T09:33:27.110Z," 3616"
2018-11-06T09:38:23.392Z," 3000"
2018-11-06T09:43:19.169Z," 3088"
2018-11-06T09:48:15.565Z," 2988"
2018-11-06T09:53:11.204Z," 3168"
2018-11-06T09:58:06.791Z," 5028"
2018-11-06T10:03:03.714Z," 4852"
2018-11-06T10:07:59.607Z," 5204"
2018-11-06T10:12:56.841Z," 5848"
2018-11-06T10:17:52.819Z," 6080"
2018-11-06T10:22:49.929Z," 5448"
2018-11-06T10:27:45.761Z," 5220"
2018-11-06T10:32:42.545Z," 5856"
2018-11-06T10:37:39.004Z," 6872"
2018-11-06T10:42:35.935Z," 6388"
2018-11-06T10:47:32.412Z," 4436"
2018-11-06T10:52:28.070Z," 4616"
2018-11-06T10:57:25.325Z," 5984"
2018-11-06T11:02:21.839Z," 7036"
2018-11-06T11:07:17.992Z," 7112"
2018-11-06T11:12:13.941Z," 6216"
2018-11-06T11:17:10.803Z," 5952"
2018-11-06T11:22:06.742Z," 5608"
2018-11-06T11:27:04.721Z," 5036"
2018-11-06T11:32:00.329Z," 5052"
2018-11-06T11:36:55.861Z," 8732"
2018-11-06T11:41:52.529Z," 6240"
2018-11-06T11:46:49.429Z," 5320"
2018-11-06T11:51:46.300Z," 5080"
2018-11-06T11:56:41.955Z," 4848"
2018-11-06T12:01:37.975Z," 5208"
2018-11-06T12:06:34.981Z," 5556"
2018-11-06T12:11:31.517Z," 5780"
2018-11-06T12:16:26.956Z," 5588"
2018-11-06T12:21:22.872Z," 5396"
2018-11-06T12:26:20.508Z," 5472"
2018-11-06T12:31:16.715Z," 5404"
2018-11-06T12:36:12.746Z," 5512"
2018-11-06T12:41:08.639Z," 5464"
2018-11-06T12:46:04.868Z," 5616"
2018-11-06T12:51:01.668Z," 5520"
2018-11-06T12:55:58.333Z," 5244"
2018-11-06T13:00:54.071Z," 5116"
2018-11-06T13:05:50.978Z," 5028"
2018-11-06T13:10:47.860Z," 4656"
2018-11-06T13:15:43.624Z," 4372"
2018-11-06T13:20:40.817Z," 4076"
2018-11-06T13:25:36.432Z," 3888"
2018-11-06T13:30:32.431Z," 3636"
2018-11-06T13:35:28.195Z," 3432"
2018-11-06T13:40:25.147Z," 3364"
2018-11-06T13:45:20.753Z," 3268"
2018-11-06T13:50:17.771Z," 3096"
2018-11-06T13:55:13.313Z," 2808"
2018-11-06T14:00:09.796Z," 2700"
2018-11-06T14:05:05.571Z," 2780"
2018-11-06T14:10:02.073Z," 2712"
2018-11-06T14:14:59.052Z," 2644"
2018-11-06T14:19:54.419Z," 2504"
2018-11-06T14:24:50.598Z," 2360"
2018-11-06T14:29:48.953Z," 2196"
2018-11-06T14:34:44.100Z," 2068"
2018-11-06T14:39:40.559Z," 1916"
2018-11-06T14:44:36.633Z," 1756"
2018-11-06T14:49:33.339Z," 1584"
2018-11-06T14:54:29.886Z," 1408"
2018-11-06T14:59:25.698Z," 1240"
2018-11-06T15:04:22.070Z," 1100"
2018-11-06T15:09:17.858Z,"  968"
2018-11-06T15:14:13.906Z,"  824"
2018-11-06T15:19:09.402Z,"  688"
2018-11-06T15:24:05.553Z,"  580"
2018-11-06T15:29:01.372Z,"  456"
2018-11-06T15:33:58.112Z,"  352"
2018-11-06T15:38:53.728Z,"  268"
2018-11-06T15:43:49.307Z,"  196"
2018-11-06T15:48:46.269Z,"  128"
2018-11-06T15:53:41.669Z,"   88"
2018-11-06T15:58:37.250Z,"   56"
2018-11-06T16:03:32.814Z,"   32"
2018-11-06T16:08:28.783Z,"   16"
2018-11-06T16:13:25.029Z,"    8"
2018-11-06T16:18:21.704Z,"    4"
2018-11-06T16:23:17.146Z,"    0"
2018-11-06T16:28:13.957Z,"    0"
2018-11-06T16:33:10.432Z,"    0"
2018-11-06T16:38:06.738Z,"    0"
2018-11-06T16:43:02.436Z,"    0"
2018-11-06T16:47:58.001Z,"    0"
2018-11-06T16:52:54.733Z,"    0"
2018-11-06T16:57:50.666Z,"    0"
2018-11-06T17:02:48.129Z,"    0"
2018-11-06T17:07:43.537Z,"    0"
2018-11-06T17:12:39.316Z,"    0"
2018-11-06T17:22:35.399Z,"    0"
2018-11-06T17:27:31.234Z,"    0"
2018-11-06T17:32:27.980Z,"    0"
2018-11-06T17:37:23.202Z,"    0"
2018-11-06T17:42:18.922Z,"    0"
2018-11-06T17:47:14.709Z,"    0"
2018-11-06T17:52:10.333Z,"    0"
2018-11-06T17:57:05.974Z,"    0"
2018-11-06T18:02:01.586Z,"    0"
2018-11-06T18:06:58.099Z,"    0"
2018-11-06T18:11:54.926Z,"    0"
2018-11-06T18:16:50.597Z,"    0"
2018-11-06T18:21:46.844Z,"    0"
2018-11-06T18:26:42.577Z,"    0"
2018-11-06T18:31:38.456Z,"    0"
2018-11-06T18:36:34.266Z,"    0"
2018-11-06T18:41:30.078Z,"    0"
2018-11-06T18:46:25.879Z,"    0"
2018-11-06T18:51:22.924Z,"    0"
2018-11-06T18:56:18.785Z,"    0"
2018-11-06T19:01:14.352Z,"    0"
2018-11-06T19:06:11.188Z,"    0"
2018-11-06T19:11:07.401Z,"    0"
2018-11-06T19:16:02.862Z,"    0"
2018-11-06T19:20:58.920Z,"    0"
2018-11-06T19:25:54.704Z,"    0"
2018-11-06T19:30:50.436Z,"    0"
2018-11-06T19:35:46.335Z,"    0"
2018-11-06T19:40:42.869Z,"    0"
2018-11-06T19:45:39.587Z,"    0"
2018-11-06T19:50:34.759Z,"    0"
2018-11-06T19:55:30.624Z,"    0"
2018-11-06T20:00:27.079Z,"    0"
2018-11-06T20:05:23.964Z,"    0"
2018-11-06T20:10:20.519Z,"    0"
2018-11-06T20:15:17.467Z,"    0"
2018-11-06T20:20:13.079Z,"    0"
2018-11-06T20:25:09.943Z,"    0"
2018-11-06T20:30:05.053Z,"    0"
2018-11-06T20:35:01.167Z,"    0"
2018-11-06T20:39:57.070Z,"    0"
2018-11-06T20:44:52.768Z,"    0"
2018-11-06T20:49:49.551Z,"    0"
2018-11-06T20:54:45.490Z,"    0"
2018-11-06T20:59:40.817Z,"    0"
2018-11-06T21:04:36.808Z,"    0"
2018-11-06T21:09:32.625Z,"    0"
2018-11-06T21:14:28.380Z,"    0"
2018-11-06T21:19:24.144Z,"    0"
2018-11-06T21:24:19.902Z,"    0"
2018-11-06T21:29:15.612Z,"    0"
2018-11-06T21:34:11.360Z,"    0"
2018-11-06T21:39:07.253Z,"    0"
2018-11-06T21:44:03.114Z,"    0"
2018-11-06T21:48:59.539Z,"    0"
2018-11-06T21:53:56.315Z,"    0"
2018-11-06T21:58:51.906Z,"    0"
2018-11-06T22:03:47.771Z,"    0"
2018-11-06T22:08:43.613Z,"    0"
2018-11-06T22:13:40.407Z,"    0"
2018-11-06T22:18:36.044Z,"    0"
2018-11-06T22:23:31.755Z,"    0"
2018-11-06T22:33:27.746Z,"    0"
2018-11-06T22:38:24.450Z,"    0"
2018-11-06T22:43:20.710Z,"    0"
2018-11-06T22:48:17.610Z,"    0"
2018-11-06T22:53:13.129Z,"    0"
2018-11-06T22:58:09.638Z,"    0"
2018-11-06T23:03:06.376Z,"    0"
2018-11-06T23:08:02.797Z,"    0"
2018-11-06T23:12:58.201Z,"    0"
2018-11-06T23:17:54.202Z,"    0"
2018-11-06T23:22:49.993Z,"    0"
2018-11-06T23:27:45.772Z,"    0"
2018-11-06T23:32:41.958Z,"    0"
2018-11-06T23:37:37.582Z,"    0"
2018-11-06T23:42:33.359Z,"    0"
2018-11-06T23:47:28.980Z,"    0"
2018-11-06T23:52:24.769Z,"    0"
2018-11-06T23:57:20.788Z,"    0"
